createdAt,value
2023-05-05T10:21:51.695Z,12.68
2023-05-05T10:27:20.330Z,13.20
2023-05-05T10:32:57.460Z,14.02
2023-05-05T10:38:29.548Z,13.27
2023-05-05T10:43:54.682Z,14.55
2023-05-05T10:49:51.574Z,12.95
2023-05-05T10:55:21.233Z,13.00
2023-05-05T11:00:42.324Z,13.93
2023-05-05T11:06:06.411Z,14.82
2023-05-05T11:12:06.626Z,13.80
2023-05-05T11:17:47.796Z,11.13
2023-05-05T11:23:08.977Z,13.85
2023-05-05T11:28:31.829Z,14.30
2023-05-05T11:33:53.479Z,13.27
2023-05-05T11:39:17.926Z,14.85
2023-05-05T11:44:39.314Z,14.20
2023-05-05T11:50:16.999Z,13.50
2023-05-05T11:55:38.240Z,13.40
2023-05-05T12:00:59.336Z,14.57
2023-05-05T12:06:20.770Z,14.40
2023-05-05T12:11:55.880Z,14.85
2023-05-05T12:17:18.542Z,13.80
2023-05-05T12:22:40.514Z,15.40
2023-05-05T12:28:01.749Z,12.30
2023-05-05T12:33:23.667Z,11.73
2023-05-05T12:38:44.877Z,19.70
2023-05-05T12:44:06.388Z,15.27
2023-05-05T12:49:27.547Z,18.00
2023-05-05T12:54:54.855Z,20.95
2023-05-05T13:00:17.285Z,16.30
2023-05-05T13:05:38.407Z,17.08
2023-05-05T13:10:59.937Z,22.70
2023-05-05T13:16:21.338Z,25.48
2023-05-05T13:21:42.787Z,26.20
2023-05-05T13:27:04.335Z,16.23
2023-05-05T13:32:25.804Z,15.85
2023-05-05T13:37:47.300Z,13.30
2023-05-05T13:43:08.644Z,10.35
2023-05-05T13:48:30.121Z,13.80
2023-05-05T13:53:51.227Z,10.00
2023-05-05T13:59:12.642Z,11.60
2023-05-05T14:04:34.179Z,5.50
2023-05-05T14:09:55.744Z,7.30
2023-05-05T14:15:17.215Z,5.05
2023-05-05T14:20:38.592Z,2.35
2023-05-05T14:26:00.512Z,4.00
2023-05-05T14:31:22.013Z,2.85
2023-05-05T14:36:43.454Z,1.85
2023-05-05T14:42:04.990Z,1.52
2023-05-05T14:47:26.403Z,2.60
2023-05-05T14:52:47.808Z,1.95
2023-05-05T14:58:09.129Z,3.13
2023-05-05T15:03:30.598Z,1.27
2023-05-05T15:08:52.139Z,3.45
2023-05-05T15:14:13.545Z,3.88
2023-05-05T15:19:34.921Z,2.85
2023-05-05T15:24:56.499Z,1.92
2023-05-05T15:30:17.978Z,5.15
2023-05-05T15:35:39.355Z,2.60
2023-05-05T15:41:00.853Z,10.13
2023-05-05T15:46:22.390Z,4.20
2023-05-05T15:51:43.769Z,5.18
2023-05-05T15:57:05.212Z,5.45
2023-05-05T16:02:26.736Z,5.35
2023-05-05T16:07:48.307Z,8.50
2023-05-05T16:13:09.760Z,6.78
2023-05-05T16:18:31.231Z,5.38
2023-05-05T16:23:52.878Z,4.68
2023-05-05T16:29:14.063Z,6.38
2023-05-05T16:34:35.404Z,4.43
2023-05-05T16:39:56.787Z,8.13
2023-05-05T16:45:18.396Z,5.22
2023-05-05T16:50:39.897Z,3.83
2023-05-05T16:56:01.331Z,5.32
2023-05-05T17:01:22.910Z,4.07
2023-05-05T17:06:44.205Z,2.08
